createdAt,value
2022-12-15T00:01:05.612Z,-4441.9
2022-12-15T00:07:04.741Z,-4441.7
2022-12-15T00:13:05.157Z,-4429.4
2022-12-15T00:19:03.738Z,-4423.3
2022-12-15T00:25:08.688Z,-4435.4
2022-12-15T00:31:04.326Z,-4453.9
2022-12-15T00:37:03.717Z,-4447.5
2022-12-15T00:43:04.560Z,-4447.3
2022-12-15T00:49:04.447Z,-4453.3
2022-12-15T00:55:04.688Z,-4453.3
2022-12-15T01:01:05.149Z,-4484.7
2022-12-15T01:07:03.909Z,-4491.1
2022-12-15T01:13:04.841Z,-4477.8
2022-12-15T01:19:04.175Z,-4490.5
2022-12-15T01:25:05.428Z,-4477.6
2022-12-15T01:31:09.960Z,-4484.1
2022-12-15T01:37:04.392Z,-4516.1
2022-12-15T01:43:05.358Z,-4549.1
2022-12-15T01:49:03.963Z,-4529.3
2022-12-15T01:55:05.675Z,-4522.6
2022-12-15T02:01:09.854Z,-4548.7
2022-12-15T02:07:04.475Z,-4541.7
2022-12-15T02:13:04.274Z,-4535.3
2022-12-15T02:19:03.610Z,-4555.2
2022-12-15T02:25:03.539Z,-4568.6
2022-12-15T02:31:03.685Z,-4568.6
2022-12-15T02:37:04.214Z,-4385.6
2022-12-15T02:43:04.331Z,-4379.7
2022-12-15T02:49:03.694Z,-4362.2
2022-12-15T02:55:04.198Z,-4362.2
2022-12-15T03:01:03.693Z,-4350.4
2022-12-15T03:07:04.254Z,-4367.8
2022-12-15T03:13:05.563Z,-4409.5
2022-12-15T03:19:04.679Z,-4439.8
2022-12-15T03:25:05.817Z,-4452.1
2022-12-15T03:31:11.789Z,-4502.5
2022-12-15T03:37:05.393Z,-4574.7
2022-12-15T03:43:03.991Z,-4568
2022-12-15T03:49:04.884Z,-4580.9
2022-12-15T03:55:09.765Z,-4567.4
2022-12-15T04:01:06.486Z,-4636.3
2022-12-15T04:07:03.815Z,-4622
2022-12-15T04:13:04.473Z,-4636.3
2022-12-15T04:19:05.595Z,-4629.3
2022-12-15T04:25:06.644Z,-4614.9
2022-12-15T04:31:04.327Z,-4642.7
2022-12-15T04:37:05.681Z,-4600.8
2022-12-15T04:43:04.613Z,-4614.6
2022-12-15T04:49:04.546Z,-4614.9
2022-12-15T04:55:08.353Z,-4593.7
2022-12-15T05:01:05.963Z,-4586.7
2022-12-15T05:07:06.526Z,-4586.7
2022-12-15T05:13:05.100Z,-4600.6
2022-12-15T05:19:04.808Z,-4607.7
2022-12-15T05:25:07.227Z,-4593.7
2022-12-15T05:31:04.713Z,-4559.8
2022-12-15T05:37:04.182Z,-4540.1
2022-12-15T05:43:06.409Z,-4501.1
2022-12-15T05:49:04.731Z,-4463.8
2022-12-15T05:55:08.692Z,-4451.4
2022-12-15T06:01:09.786Z,-4451.8
2022-12-15T06:07:05.727Z,-4402.8
2022-12-15T06:13:05.008Z,-4415.4
2022-12-15T06:19:04.335Z,-4415.6
2022-12-15T06:25:13.328Z,-4409.9
2022-12-15T06:31:04.270Z,-4403.9
2022-12-15T06:37:05.640Z,-4373.9
2022-12-15T06:43:06.026Z,-4374.4
2022-12-15T06:49:04.519Z,-4374.6
2022-12-15T06:55:12.261Z,-4363.3
2022-12-15T07:01:09.300Z,-4345.9
2022-12-15T07:07:05.865Z,-4334.6
2022-12-15T07:13:04.172Z,-4334.6
2022-12-15T07:19:04.356Z,-4329.1
2022-12-15T07:25:06.175Z,-4323.5
2022-12-15T07:31:04.575Z,-4312.4
2022-12-15T07:37:05.416Z,-4295.9
2022-12-15T07:43:04.376Z,-4262.9
2022-12-15T07:49:04.604Z,-4263
2022-12-15T07:55:05.000Z,-4268.5
2022-12-15T08:01:13.915Z,-4263.2
2022-12-15T08:07:05.343Z,-4269
2022-12-15T08:13:05.665Z,-4274.6
2022-12-15T08:19:06.120Z,-4274.8
2022-12-15T08:25:07.598Z,-4258.5
2022-12-15T08:31:04.064Z,-4253.3
2022-12-15T08:37:05.144Z,-4211.3
2022-12-15T08:43:05.086Z,-4206.1
2022-12-15T08:49:06.470Z,-4222.1
2022-12-15T08:55:08.885Z,-4216.5
2022-12-15T09:01:09.779Z,-4190.4
2022-12-15T09:07:05.188Z,-4211.1
2022-12-15T09:13:04.207Z,-4222.1
2022-12-15T09:19:06.517Z,-4232.8
2022-12-15T09:25:07.441Z,-4259.6
2022-12-15T09:31:04.244Z,-4292.8
2022-12-15T09:37:04.064Z,-4326.4
2022-12-15T09:43:33.300Z,-4314.9
2022-12-15T09:49:04.304Z,-4298
2022-12-15T09:55:07.655Z,-4286.8
2022-12-15T10:01:04.017Z,-4216.7
2022-12-15T10:07:03.913Z,-4185.4
2022-12-15T10:13:04.824Z,-4259.6
2022-12-15T10:19:04.056Z,-4276.4
2022-12-15T10:25:10.011Z,-4333
2022-12-15T10:31:04.383Z,-4333
2022-12-15T10:37:04.709Z,-4.8
2022-12-15T10:43:04.551Z,-4.9
2022-12-15T10:49:04.927Z,-5.1
2022-12-15T10:55:06.231Z,-4.8
2022-12-15T11:01:05.378Z,-4.8
2022-12-15T11:07:04.431Z,-5.2
2022-12-15T11:13:04.819Z,-5.3
2022-12-15T11:19:04.616Z,-5
2022-12-15T11:25:05.156Z,-4.4
2022-12-15T11:31:04.044Z,-4.4
2022-12-15T11:37:05.977Z,-4.4
2022-12-15T11:43:03.860Z,-4.4
2022-12-15T11:49:04.009Z,-4.9
2022-12-15T11:55:05.807Z,-4.8
2022-12-15T12:01:04.120Z,-4.8
2022-12-15T12:07:03.959Z,-4.5
2022-12-15T12:13:03.897Z,-4.6
2022-12-15T12:19:03.881Z,-4.8
2022-12-15T12:25:06.223Z,-4.8
2022-12-15T12:31:05.248Z,-5.1
2022-12-15T12:37:04.175Z,-4.9
2022-12-15T12:43:07.312Z,-4.6
2022-12-15T12:49:05.146Z,-4.5
2022-12-15T12:55:09.624Z,-4.7
2022-12-15T13:01:05.171Z,-4.4
2022-12-15T13:07:05.147Z,-4.1
2022-12-15T13:13:03.926Z,-4.1
2022-12-15T13:19:04.563Z,-4.5
2022-12-15T13:25:05.788Z,-4.4
2022-12-15T13:31:06.436Z,-4.5
2022-12-15T13:37:03.960Z,-4.5
2022-12-15T13:43:03.861Z,-4.5
2022-12-15T13:49:05.133Z,-4.5
2022-12-15T13:55:06.071Z,-4.8
2022-12-15T14:01:05.750Z,-4.8
2022-12-15T14:07:04.527Z,-4.7
2022-12-15T14:13:15.133Z,-4.6
2022-12-15T14:19:05.649Z,-4.7
2022-12-15T14:25:08.354Z,-4.6
2022-12-15T14:31:05.395Z,-4.7
2022-12-15T14:37:04.298Z,-4.8
2022-12-15T14:43:04.818Z,-4.8
2022-12-15T14:49:05.580Z,-4.9
2022-12-15T14:55:07.483Z,-5
2022-12-15T15:01:04.188Z,-4.9
2022-12-15T15:07:04.801Z,-5.1
2022-12-15T15:13:04.672Z,-5.1
2022-12-15T15:19:05.518Z,-5
2022-12-15T15:25:07.781Z,-5.2
2022-12-15T15:31:05.278Z,-5.2
2022-12-15T15:37:05.411Z,-5.3
2022-12-15T15:43:05.193Z,-5.3
2022-12-15T15:49:06.576Z,-5.6
2022-12-15T15:55:04.350Z,-5.5
2022-12-15T16:01:12.940Z,-5.7
2022-12-15T16:07:06.424Z,-4615.8
2022-12-15T16:13:05.091Z,-4541.3
2022-12-15T16:19:06.351Z,-5.5
2022-12-15T16:25:10.794Z,-4541.1
2022-12-15T16:31:05.343Z,-4527.9
2022-12-15T16:37:05.483Z,-4521.4
2022-12-15T16:43:05.090Z,-4439
2022-12-15T16:49:06.168Z,-4426.9
2022-12-15T16:55:05.863Z,-4402.6
2022-12-15T17:01:07.934Z,-4402.4
2022-12-15T17:07:05.303Z,-4390.7
2022-12-15T17:13:04.747Z,-4378.9
2022-12-15T17:19:06.701Z,-4373
2022-12-15T17:25:09.796Z,-4420.3
2022-12-15T17:31:05.001Z,-4426.2
2022-12-15T17:37:05.145Z,-4432.1
2022-12-15T17:43:05.852Z,-4377.9
2022-12-15T17:49:06.445Z,-4331.5
2022-12-15T17:55:06.774Z,-4337.2
2022-12-15T18:01:05.613Z,-4331.5
2022-12-15T18:07:06.125Z,-4331.3
2022-12-15T18:13:06.504Z,-4342.6
2022-12-15T18:19:05.798Z,-4336.7
2022-12-15T18:25:07.157Z,-4324.9
2022-12-15T18:31:08.669Z,-4347.7
2022-12-15T18:37:05.005Z,-4359.1
2022-12-15T18:43:04.699Z,-4382.3
2022-12-15T18:49:05.444Z,-4424.3
2022-12-15T18:55:07.506Z,-4394
2022-12-15T19:01:08.005Z,-4412
2022-12-15T19:07:05.364Z,-4370
2022-12-15T19:13:06.335Z,-4387.5
2022-12-15T19:19:06.180Z,-4399.2
2022-12-15T19:25:07.428Z,-4441.7
2022-12-15T19:31:07.791Z,-4472.7
2022-12-15T19:37:04.890Z,-4472.7
2022-12-15T19:43:06.139Z,-4447.7
2022-12-15T19:49:06.392Z,-4423
2022-12-15T19:55:07.750Z,-4416.9
2022-12-15T20:01:09.098Z,-4429
2022-12-15T20:07:05.544Z,-4428.9
2022-12-15T20:13:05.591Z,-4434.8
2022-12-15T20:19:07.113Z,-4398.1
2022-12-15T20:25:07.620Z,-4404.3
2022-12-15T20:31:08.529Z,-4422.4
2022-12-15T20:37:06.797Z,-4422.4
2022-12-15T20:43:05.032Z,-4453.1
2022-12-15T20:49:06.213Z,-4471.7
2022-12-15T20:55:07.203Z,-4484.3
2022-12-15T21:01:10.687Z,-4523
2022-12-15T21:07:04.528Z,-4503.3
2022-12-15T21:13:06.491Z,-4516.1
2022-12-15T21:19:22.866Z,-4509.8
2022-12-15T21:25:05.910Z,-4516.1
2022-12-15T21:31:08.318Z,-4528.9
2022-12-15T21:37:08.181Z,-4548.7
2022-12-15T21:43:05.945Z,-4542.1
2022-12-15T21:49:05.568Z,-4548.7
2022-12-15T21:55:07.703Z,-4555.4
2022-12-15T22:01:10.548Z,-4548.5
2022-12-15T22:07:05.918Z,-4541.9
2022-12-15T22:13:06.674Z,-4489.9
2022-12-15T22:19:06.408Z,-4508.6
2022-12-15T22:25:08.349Z,-4554.2
2022-12-15T22:31:06.754Z,-4567.8
2022-12-15T22:37:05.723Z,-4615.5
2022-12-15T22:43:04.687Z,-4595
2022-12-15T22:49:05.378Z,-4554.2
2022-12-15T22:55:06.849Z,-4482.6
2022-12-15T23:01:15.804Z,-4343.9
2022-12-15T23:07:05.466Z,-4304.3
2022-12-15T23:13:05.248Z,-4287.7
2022-12-15T23:19:06.162Z,-4244.5
2022-12-15T23:25:07.071Z,-4212.7
2022-12-15T23:31:06.755Z,-4171.8
2022-12-15T23:37:04.791Z,-4156.9
2022-12-15T23:43:06.759Z,-4157.1
2022-12-15T23:49:05.027Z,-4157.1
2022-12-15T23:55:06.387Z,-4161.9
